EW0747 Ljugarn SE current weather conditions

sailwx.info

Wind from 156

Air temperature 11.7° C
Dewpoint 10.2° C

Last reported at 2020-Jul-11 22:02 UTC.
Time now 2020-Jul-11 23:07 UTC

Location: N 57°20' E 018°43'.
View on Google Maps.

See reports from other nearby stations

  
Tides and Currents Weather Stations Pressure Air Temp Water Temp Dewpoint Dewpoint Depression Visibility Wind Speed Wind Dir Waves Ship Positions
date/time (UTC)wind fromknots sea level pressurealtimeterstation pressurevisibilityair tempwater tempwave heightnotes
2020-Jul-11 22:02 156 11.7
2020-Jul-11 21:46 156 11.7
2020-Jul-11 21:30 156 12.2
2020-Jul-11 21:16 156 12.2
2020-Jul-11 21:01 156 12.2
2020-Jul-11 20:45 156 12.2
2020-Jul-11 20:30 156 12.8
2020-Jul-11 20:16 156 13.3
2020-Jul-11 20:00 156 13.3
2020-Jul-11 19:46 156 13.9
2020-Jul-11 19:31 156 14.4
2020-Jul-11 19:16 156 15.0
2020-Jul-11 19:01 156 15.6
2020-Jul-11 18:45 156 15.6
2020-Jul-11 18:31 156 16.1
2020-Jul-11 18:16 145 16.1
2020-Jul-11 18:01 151 4 gusting 9 16.7
2020-Jul-11 17:46 165 3 gusting 7 16.7
2020-Jul-11 17:30 144 0 gusting 7 16.7
2020-Jul-11 17:15 135 17.2
2020-Jul-11 17:00 155 1 gusting 8 17.2
2020-Jul-11 16:45 146 5 gusting 11 17.8
2020-Jul-11 16:30 152 2 gusting 10 18.3
2020-Jul-11 16:15 158 3 gusting 8 18.3
2020-Jul-11 16:00 129 4 gusting 12 17.8
2020-Jul-11 15:45 146 2 gusting 11 18.3
2020-Jul-11 15:30 146 1 gusting 8 18.9
2020-Jul-11 15:15 137 4 gusting 10 18.3
2020-Jul-11 15:00 142 4 gusting 11 18.9
2020-Jul-11 14:45 159 5 gusting 12 18.9
2020-Jul-11 14:30 143 5 gusting 9 18.9
2020-Jul-11 14:15 095 3 gusting 10 18.3
2020-Jul-11 14:00 104 2 gusting 7 18.3
2020-Jul-11 13:45 110 5 gusting 10 18.3
2020-Jul-11 13:31 138 2 gusting 9 18.9
2020-Jul-11 13:15 144 2 gusting 11 18.9
2020-Jul-11 13:01 092 18.9
2020-Jul-11 12:46 192 1 gusting 8 18.3
2020-Jul-11 12:31 111 2 gusting 6 17.8
2020-Jul-11 12:17 244 17.2
2020-Jul-11 12:01 161 17.8
2020-Jul-11 11:46 216 17.2
2020-Jul-11 11:31 177 17.2
2020-Jul-11 11:16 223 16.1
2020-Jul-11 11:01 167 16.1
2020-Jul-11 10:45 128 16.7
2020-Jul-11 10:30 157 16.7
2020-Jul-11 10:16 273 1 gusting 8 15.0
2020-Jul-11 10:00 154 2 gusting 9 16.1
2020-Jul-11 09:45 214 3 gusting 10 15.0
2020-Jul-11 09:30 162 5 gusting 13 16.1
2020-Jul-11 09:15 269 2 gusting 7 15.0
2020-Jul-11 09:00 205 2 gusting 10 14.4
2020-Jul-11 08:45 161 14.4
2020-Jul-11 08:32 209 3 gusting 11 13.9
2020-Jul-11 08:15 141 13.9
2020-Jul-11 08:00 192 0 gusting 6 13.3
2020-Jul-11 07:45 208 1 gusting 6 13.3
2020-Jul-11 07:17 232 3 gusting 10 14.4
2020-Jul-11 06:46 157 4 gusting 10 13.9
2020-Jul-11 06:31 185 2 gusting 12 13.9
2020-Jul-11 06:16 176 2 gusting 9 13.9
2020-Jul-11 06:01 171 2 gusting 9 13.3
2020-Jul-11 05:46 151 2 gusting 10 12.2
2020-Jul-11 05:31 194 3 gusting 10 12.2
2020-Jul-11 05:16 147 2 gusting 6 12.2
2020-Jul-11 04:46 115 2 gusting 10 11.7
2020-Jul-11 04:31 130 1 gusting 9 11.7
2020-Jul-11 04:15 186 0 gusting 11 11.7
2020-Jul-11 04:00 115 0 gusting 6 11.1
2020-Jul-11 03:45 227 2 gusting 7 11.1
2020-Jul-11 03:30 162 1 gusting 9 11.1
2020-Jul-11 03:15 196 11.1
2020-Jul-11 03:00 138 10.6
2020-Jul-11 02:45 135 0 gusting 6 10.6
2020-Jul-11 02:30 188 10.6
2020-Jul-11 02:15 238 10.6
2020-Jul-11 01:46 217 0 gusting 8 11.1
2020-Jul-11 01:32 174 2 gusting 11 11.1
2020-Jul-11 01:17 175 3 gusting 15 11.7
2020-Jul-11 01:01 197 0 gusting 9 11.7
2020-Jul-11 00:46 195 0 gusting 10 11.7
2020-Jul-11 00:31 193 2 gusting 16 11.7
2020-Jul-11 00:15 193 3 gusting 13 12.2
2020-Jul-11 00:01 198 2 gusting 10 12.2
2020-Jul-10 23:45 249 0 gusting 8 12.2
2020-Jul-10 23:31 218 12.8
2020-Jul-10 23:15 249 12.2
2020-Jul-10 23:00 243 6 gusting 13 12.2
2020-Jul-10 22:46 279 8 gusting 13 12.8
2020-Jul-10 22:30 234 0 gusting 5 12.8
2020-Jul-10 22:17 256 12.8
2020-Jul-10 22:00 273 6 gusting 16 12.8
2020-Jul-10 21:45 300 10 gusting 19 13.3
2020-Jul-10 21:30 331 11 gusting 13 13.3
2020-Jul-10 21:15 325 11 gusting 13 13.3
2020-Jul-10 21:00 328 10 gusting 13 13.3
2020-Jul-10 20:45 335 10 gusting 13 13.3
2020-Jul-10 20:31 333 10 gusting 12 13.3
2020-Jul-10 20:16 335 8 gusting 10 13.3
2020-Jul-10 20:02 336 6 gusting 7 13.3
2020-Jul-10 19:47 327 5 gusting 6 13.3
2020-Jul-10 19:31 317 3 gusting 6 13.3
2020-Jul-10 19:16 329 6 gusting 9 13.3
2020-Jul-10 19:02 347 5 gusting 6 13.3
2020-Jul-10 18:46 345 4 gusting 6 13.3
2020-Jul-10 18:30 338 6 gusting 7 13.3
2020-Jul-10 18:16 327 4 gusting 6 13.9
2020-Jul-10 18:01 314 3 gusting 5 13.9
2020-Jul-10 17:45 314 13.9
2020-Jul-10 17:30 314 13.9
2020-Jul-10 17:18 314 13.9
2020-Jul-10 17:01 316 4 gusting 6 13.9
2020-Jul-10 16:46 360 13.9
2020-Jul-10 16:30 360 13.9
2020-Jul-10 16:16 360 13.9
2020-Jul-10 16:01 360 13.9
2020-Jul-10 15:46 360 14.4
2020-Jul-10 15:31 360 14.4
2020-Jul-10 15:15 360 14.4
2020-Jul-10 15:00 360 14.4
2020-Jul-10 14:46 360 14.4
2020-Jul-10 14:30 012 14.4
2020-Jul-10 14:16 033 15.0
2020-Jul-10 14:00 053 15.0
2020-Jul-10 13:46 053 15.0
2020-Jul-10 13:30 053 14.4
2020-Jul-10 13:15 053 14.4
2020-Jul-10 13:00 048 15.0
2020-Jul-10 12:46 047 14.4
2020-Jul-10 12:30 043 15.0
2020-Jul-10 12:15 022 15.0
2020-Jul-10 12:00 022 15.0
2020-Jul-10 11:45 022 15.0
2020-Jul-10 11:30 011 15.0
2020-Jul-10 11:15 022 15.0
2020-Jul-10 11:00 034 15.0
2020-Jul-10 10:45 038 15.0
2020-Jul-10 10:30 038 15.0
2020-Jul-10 10:15 020 15.0
2020-Jul-10 10:00 351 15.6
2020-Jul-10 09:45 346 15.6
2020-Jul-10 09:30 318 15.6
2020-Jul-10 09:01 318 15.0
2020-Jul-10 08:47 318 15.6
2020-Jul-10 08:32 318 15.6
2020-Jul-10 08:17 318 15.0
2020-Jul-10 08:02 318 14.4
2020-Jul-10 07:46 111 14.4
2020-Jul-10 07:31 111 14.4
2020-Jul-10 07:16 111 15.0
2020-Jul-10 07:01 111 15.0
2020-Jul-10 06:46 111 15.0
2020-Jul-10 06:31 111 15.6
2020-Jul-10 06:16 111 14.4
2020-Jul-10 06:01 111 13.9
2020-Jul-10 05:45 111 13.3
2020-Jul-10 05:30 111 12.8
2020-Jul-10 05:16 111 12.8
2020-Jul-10 05:00 111 12.8
2020-Jul-10 04:45 111 12.2
2020-Jul-10 04:31 111 11.7
2020-Jul-10 04:15 111 11.1
2020-Jul-10 04:00 111 10.0
2020-Jul-10 03:45 111 9.4
2020-Jul-10 03:30 111 8.9
2020-Jul-10 03:15 111 8.3
2020-Jul-10 03:00 111 7.8
2020-Jul-10 02:45 111 7.2
2020-Jul-10 02:32 111 7.2
2020-Jul-10 02:17 111 7.2
2020-Jul-10 02:01 111 7.2
2020-Jul-10 01:47 111 7.8
2020-Jul-10 01:31 111 7.8
2020-Jul-10 01:17 111 7.8
2020-Jul-10 01:01 111 8.3
2020-Jul-10 00:46 111 8.3
2020-Jul-10 00:31 111 8.9
2020-Jul-10 00:16 111 9.4
2020-Jul-10 00:00 111 9.4
2020-Jul-09 23:45 111 9.4
2020-Jul-09 23:31 111 10.0
2020-Jul-09 23:15 111 10.0
2020-Jul-09 23:00 111 10.6